createdAt,value
2023-03-15T00:03:44.238Z,11.3
2023-03-15T00:08:47.329Z,11.1
2023-03-15T00:13:50.264Z,11
2023-03-15T00:18:53.268Z,10.9
2023-03-15T00:23:55.757Z,10.9
2023-03-15T00:28:58.840Z,10.8
2023-03-15T00:34:01.499Z,10.6
2023-03-15T00:39:04.682Z,10.5
2023-03-15T00:44:07.471Z,10.4
2023-03-15T00:49:09.663Z,10.4
2023-03-15T00:54:11.983Z,10.3
2023-03-15T00:59:14.207Z,10.2
2023-03-15T01:04:16.408Z,10.1
2023-03-15T01:09:18.818Z,10
2023-03-15T01:14:21.865Z,9.9
2023-03-15T01:19:25.075Z,9.8
2023-03-15T01:24:28.227Z,9.8
2023-03-15T01:29:30.948Z,9.8
2023-03-15T01:34:34.589Z,9.7
2023-03-15T01:39:37.675Z,9.7
2023-03-15T01:44:40.787Z,9.7
2023-03-15T01:49:43.874Z,9.6
2023-03-15T01:54:47.494Z,9.6
2023-03-15T01:59:50.267Z,9.6
2023-03-15T02:04:53.249Z,9.6
2023-03-15T02:09:56.217Z,9.6
2023-03-15T02:14:58.270Z,9.6
2023-03-15T02:20:00.994Z,9.5
2023-03-15T02:25:04.152Z,9.5
2023-03-15T02:30:06.373Z,9.4
2023-03-15T02:35:12.790Z,9.4
2023-03-15T02:40:19.319Z,9.3
2023-03-15T02:50:40.118Z,9.3
2023-03-15T02:55:35.144Z,9.2
2023-03-15T03:00:37.503Z,9.2
2023-03-15T03:05:39.797Z,9.2
2023-03-15T03:10:41.939Z,9.2
2023-03-15T03:15:47.257Z,9.1
2023-03-15T03:20:53.485Z,9.2
2023-03-15T03:25:59.633Z,9.1
2023-03-15T03:31:03.346Z,9.1
2023-03-15T03:36:06.691Z,9.1
2023-03-15T03:41:09.592Z,9
2023-03-15T03:46:12.426Z,8.9
2023-03-15T03:51:18.120Z,8.8
2023-03-15T03:56:21.020Z,8.7
2023-03-15T04:01:25.862Z,8.7
2023-03-15T04:11:30.190Z,8.2
2023-03-15T04:16:35.556Z,8.1
2023-03-15T04:21:38.444Z,8
2023-03-15T04:26:41.498Z,7.9
2023-03-15T04:31:44.619Z,7.8
2023-03-15T04:36:47.766Z,7.9
2023-03-15T04:46:59.026Z,7.8
2023-03-15T04:52:02.090Z,7.7
2023-03-15T04:57:04.400Z,7.7
2023-03-15T05:02:07.528Z,7.8
2023-03-15T05:07:10.056Z,7.8
2023-03-15T05:12:13.015Z,7.8
2023-03-15T05:17:15.715Z,7.8
2023-03-15T05:22:18.274Z,7.7
2023-03-15T05:27:23.620Z,7.8
2023-03-15T05:32:26.057Z,7.9
2023-03-15T05:37:28.525Z,7.9
2023-03-15T05:42:30.674Z,7.9
2023-03-15T05:47:35.254Z,8
2023-03-15T05:52:37.688Z,8
2023-03-15T05:57:39.962Z,8
2023-03-15T06:02:42.227Z,7.9
2023-03-15T06:07:45.712Z,8
2023-03-15T06:12:47.846Z,8
2023-03-15T06:17:50.042Z,8
2023-03-15T06:22:52.190Z,8.1
2023-03-15T06:27:54.394Z,7.9
2023-03-15T06:32:57.030Z,7.8
2023-03-15T06:37:59.388Z,7.7
2023-03-15T06:43:01.772Z,7.7
2023-03-15T06:48:04.999Z,7.8
2023-03-15T06:53:07.039Z,7.8
2023-03-15T06:58:09.389Z,7.7
2023-03-15T07:03:11.495Z,7.6
2023-03-15T07:08:13.533Z,7.5
2023-03-15T07:13:15.819Z,7.4
2023-03-15T07:18:19.682Z,7.3
2023-03-15T07:23:21.959Z,7.3
2023-03-15T07:28:24.834Z,7.2
2023-03-15T07:33:27.492Z,7.3
2023-03-15T07:38:30.428Z,7.2
2023-03-15T07:43:32.619Z,7.2
2023-03-15T07:48:35.262Z,7.2
2023-03-15T07:58:38.122Z,7.2
2023-03-15T08:03:40.722Z,7.2
2023-03-15T08:08:42.819Z,7.1
2023-03-15T08:13:44.953Z,7.2
2023-03-15T08:18:47.149Z,7.2
2023-03-15T08:23:49.406Z,7
2023-03-15T08:28:51.672Z,7.1
2023-03-15T08:33:53.768Z,7
2023-03-15T08:38:55.815Z,7
2023-03-15T08:43:57.989Z,7
2023-03-15T08:49:00.088Z,7
2023-03-15T08:54:02.183Z,6.9
2023-03-15T08:59:04.324Z,6.8
2023-03-15T09:04:06.987Z,6.6
2023-03-15T09:09:09.198Z,6.6
2023-03-15T09:14:11.382Z,6.6
2023-03-15T09:19:13.569Z,6.5
2023-03-15T09:24:15.826Z,6.6
2023-03-15T09:29:18.316Z,6.6
2023-03-15T09:34:23.522Z,6.6
2023-03-15T09:39:28.759Z,6.6
2023-03-15T09:44:31.188Z,6.7
2023-03-15T09:49:33.354Z,6.7
2023-03-15T09:54:35.508Z,6.5
2023-03-15T09:59:37.705Z,6.4
2023-03-15T10:04:39.865Z,6.4
2023-03-15T10:09:45.287Z,6.4
2023-03-15T10:14:47.331Z,6.4
2023-03-15T10:19:49.428Z,6.4
2023-03-15T10:24:51.613Z,6.4
2023-03-15T10:29:53.971Z,6.5
2023-03-15T10:34:56.187Z,6.4
2023-03-15T10:39:58.364Z,6.7
2023-03-15T10:45:00.452Z,6.7
2023-03-15T10:50:02.600Z,6.6
2023-03-15T10:55:06.651Z,6.8
2023-03-15T11:00:08.729Z,6.8
2023-03-15T11:05:10.902Z,7.1
2023-03-15T11:10:13.110Z,7.3
2023-03-15T11:15:15.161Z,7.4
2023-03-15T11:20:17.261Z,7.5
2023-03-15T11:25:19.406Z,7.6
2023-03-15T11:35:22.365Z,7.9
2023-03-15T11:40:24.637Z,8.1
2023-03-15T11:45:27.374Z,8.3
2023-03-15T11:50:29.505Z,8.3
2023-03-15T11:55:31.557Z,8.5
2023-03-15T12:00:33.527Z,8.6
2023-03-15T12:05:35.726Z,8.7
2023-03-15T12:10:38.186Z,8.5
2023-03-15T12:15:40.219Z,8.4
2023-03-15T12:20:42.389Z,8.4
2023-03-15T12:25:56.805Z,8.2
2023-03-15T12:30:49.419Z,8.2
2023-03-15T12:35:51.688Z,7.7
2023-03-15T12:40:53.860Z,7.4
2023-03-15T12:45:56.048Z,7.1
2023-03-15T12:50:58.600Z,8.2
2023-03-15T12:56:10.216Z,7.6
2023-03-15T13:01:02.462Z,7.6
2023-03-15T13:06:06.123Z,7.3
2023-03-15T13:11:13.700Z,7.3
2023-03-15T13:16:09.385Z,7
2023-03-15T13:21:11.859Z,7
2023-03-15T13:26:14.179Z,7
2023-03-15T13:31:16.756Z,6.9
2023-03-15T13:36:19.280Z,6.9
2023-03-15T13:41:21.659Z,6.9
2023-03-15T13:46:24.413Z,6.8
2023-03-15T13:51:26.834Z,6.8
2023-03-15T13:56:49.099Z,6.7
2023-03-15T14:01:31.905Z,6.7
2023-03-15T14:06:34.201Z,6.7
2023-03-15T14:11:36.575Z,6.7
2023-03-15T14:17:06.127Z,6.8
2023-03-15T14:21:49.518Z,6.7
2023-03-15T14:27:14.129Z,6.4
2023-03-15T14:32:00.119Z,6.4
2023-03-15T14:37:02.487Z,6.4
2023-03-15T14:42:05.393Z,6.4
2023-03-15T14:47:07.518Z,6.3
2023-03-15T14:52:09.628Z,6.5
2023-03-15T14:57:11.686Z,6.5
2023-03-15T15:02:14.005Z,6.4
2023-03-15T15:07:16.245Z,6.4
2023-03-15T15:12:18.441Z,6.4
2023-03-15T15:17:21.251Z,6.4
2023-03-15T15:22:23.451Z,6.3
2023-03-15T15:27:25.727Z,6.3
2023-03-15T15:32:27.977Z,6.4
2023-03-15T15:37:30.410Z,6.3
2023-03-15T15:42:32.452Z,6.3
2023-03-15T15:47:34.619Z,6.3
2023-03-15T15:52:36.596Z,6.3
2023-03-15T15:57:38.833Z,6.2
2023-03-15T16:02:41.092Z,6.2
2023-03-15T16:07:43.952Z,6.2
2023-03-15T16:12:46.044Z,6.2
2023-03-15T16:17:48.202Z,6.1
2023-03-15T16:22:50.442Z,6.1
2023-03-15T16:27:52.566Z,5.9
2023-03-15T16:32:55.472Z,5.8
2023-03-15T16:37:57.957Z,5.7
2023-03-15T16:43:00.858Z,5.7
2023-03-15T16:48:03.518Z,5.8
2023-03-15T16:53:05.850Z,5.7
2023-03-15T16:58:08.439Z,5.8
2023-03-15T17:03:11.186Z,5.8
2023-03-15T17:08:14.083Z,5.8
2023-03-15T17:13:19.114Z,5.8
2023-03-15T17:18:22.646Z,5.8
2023-03-15T17:28:26.243Z,5.8
2023-03-15T17:33:28.333Z,5.8
2023-03-15T17:38:30.822Z,5.7
2023-03-15T17:43:32.910Z,5.7
2023-03-15T17:48:35.569Z,5.6
2023-03-15T17:53:37.835Z,5.6
2023-03-15T17:58:40.347Z,5.6
2023-03-15T18:03:43.824Z,5.6
2023-03-15T18:08:46.454Z,5.5
2023-03-15T18:13:49.506Z,5.6
2023-03-15T18:18:51.829Z,5.5
2023-03-15T18:23:54.113Z,5.6
2023-03-15T18:28:56.486Z,5.6
2023-03-15T18:34:00.305Z,5.6
2023-03-15T18:39:03.257Z,5.5
2023-03-15T18:44:05.594Z,5.5
2023-03-15T18:49:07.841Z,5.4
2023-03-15T18:54:10.099Z,5.3
2023-03-15T18:59:12.724Z,5.2
2023-03-15T19:04:15.356Z,5.2
2023-03-15T19:09:17.566Z,5.1
2023-03-15T19:14:19.864Z,5.2
2023-03-15T19:19:21.959Z,5.6
2023-03-15T19:24:24.094Z,5.6
2023-03-15T19:29:26.172Z,5.5
2023-03-15T19:34:31.131Z,5.4
2023-03-15T19:39:33.678Z,5.4
2023-03-15T19:44:37.953Z,5.4
2023-03-15T19:49:40.823Z,5.4
2023-03-15T19:54:43.078Z,5.4
2023-03-15T19:59:45.174Z,5.3
2023-03-15T20:04:47.266Z,5.2
2023-03-15T20:09:49.290Z,5.1
2023-03-15T20:14:51.626Z,5.1
2023-03-15T20:19:53.759Z,5.1
2023-03-15T20:24:57.840Z,4.8
2023-03-15T20:30:00.259Z,4.8
2023-03-15T20:35:02.454Z,4.8
2023-03-15T20:40:05.286Z,4.6
2023-03-15T20:45:07.737Z,4.6
2023-03-15T20:50:10.031Z,4.7
2023-03-15T20:55:15.409Z,4.7
2023-03-15T21:00:17.672Z,4.7
2023-03-15T21:05:20.057Z,4.7
2023-03-15T21:10:23.910Z,4.7
2023-03-15T21:15:26.941Z,4.6
2023-03-15T21:20:29.021Z,4.5
2023-03-15T21:25:31.204Z,4.6
2023-03-15T21:30:33.381Z,4.5
2023-03-15T21:35:35.697Z,4.4
2023-03-15T21:40:38.317Z,4.3
2023-03-15T21:45:41.194Z,4.2
2023-03-15T21:50:43.847Z,4.1
2023-03-15T21:55:46.562Z,4
2023-03-15T22:00:48.946Z,4
2023-03-15T22:05:51.041Z,4
2023-03-15T22:10:53.208Z,3.9
2023-03-15T22:15:55.369Z,3.7
2023-03-15T22:20:57.426Z,3.5
2023-03-15T22:25:59.520Z,3.4
2023-03-15T22:31:01.791Z,3.3
2023-03-15T22:36:04.182Z,3.2
2023-03-15T22:41:06.888Z,3.1
2023-03-15T22:46:09.034Z,3.1
2023-03-15T22:51:11.202Z,3
2023-03-15T22:56:13.396Z,3
2023-03-15T23:01:15.701Z,3
2023-03-15T23:06:17.853Z,3
2023-03-15T23:11:19.988Z,3.1
2023-03-15T23:16:22.501Z,3.1
2023-03-15T23:21:24.829Z,3.1
2023-03-15T23:26:32.032Z,3.1
2023-03-15T23:31:46.362Z,3.1
2023-03-15T23:37:13.693Z,3.1
2023-03-15T23:43:23.705Z,3.1
2023-03-15T23:46:43.541Z,3.1
